Time;durP1;ratioP1;P1;durP2;ratioP2;P2;SDS_P1;SDS_P2;PMS_P1;PMS_P2;Temp;Humidity;BMP_temperature;BMP_pressure;BME280_temperature;BME280_humidity;BME280_pressure;Samples;Min_cycle;Max_cycle;Signal;HPM_P1;HPM_P2
2021/04/08 00:01:37;;;;;;;;;;;;;;;21.88;26.27;97671.53;5090292;28;871;-78
2021/04/08 00:04:02;;;;;;;;;;;;;;;22.14;25.82;97690.09;5089942;28;681;-79
2021/04/08 00:06:28;;;;;;;;;;;;;;;22.30;25.88;97689.94;5089352;28;679;-78
2021/04/08 00:08:53;;;;;;;;;;;;;;;21.75;26.50;97685.66;5089577;28;632;-79
2021/04/08 00:11:18;;;;;;;;;;;;;;;21.87;26.14;97692.59;5089938;28;860;-78
2021/04/08 00:13:44;;;;;;;;;;;;;;;21.66;26.77;97689.19;5089210;28;893;-79
2021/04/08 00:16:09;;;;;;;;;;;;;;;21.62;26.56;97671.53;5090185;28;1948;-78
2021/04/08 00:18:35;;;;;;;;;;;;;;;21.73;26.61;97654.97;5089372;28;562;-78
2021/04/08 00:21:00;;;;;;;;;;;;;;;22.25;25.85;97662.16;5090224;28;574;-78
2021/04/08 00:23:26;;;;;;;;;;;;;;;21.85;26.27;97679.66;5089197;28;543;-78
2021/04/08 00:25:51;;;;;;;;;;;;;;;21.58;26.79;97676.50;5089720;28;966;-78
2021/04/08 00:28:17;;;;;;;;;;;;;;;21.62;26.67;97682.84;5088307;28;907;-78
2021/04/08 00:30:43;;;;;;;;;;;;;;;21.70;26.54;97689.06;5089836;28;799;-78
2021/04/08 00:33:21;;;;;;;;;;;;;;;21.56;26.65;97679.00;5089329;28;756;-77
2021/04/08 00:35:47;;;;;;;;;;;;;;;21.65;26.50;97675.47;5089827;28;981;-79
2021/04/08 00:38:12;;;;;;;;;;;;;;;21.78;26.39;97674.25;5089435;28;1961;-78
2021/04/08 00:40:38;;;;;;;;;;;;;;;21.62;26.75;97677.19;5089720;28;773;-78
2021/04/08 00:43:03;;;;;;;;;;;;;;;21.42;27.03;97668.13;5091280;28;859;-79
2021/04/08 00:45:29;;;;;;;;;;;;;;;21.39;26.83;97663.34;5092375;28;885;-78
2021/04/08 00:47:54;;;;;;;;;;;;;;;21.50;26.75;97655.31;5092469;28;547;-77
2021/04/08 00:50:20;;;;;;;;;;;;;;;21.43;26.82;97658.38;5093175;28;551;-78
2021/04/08 00:53:09;;;;;;;;;;;;;;;21.46;26.89;97671.66;5091839;28;1192;-78
2021/04/08 00:55:39;;;;;;;;;;;;;;;21.54;26.67;97665.28;5089628;28;1166;-78
2021/04/08 00:58:04;;;;;;;;;;;;;;;21.47;26.90;97659.06;5091677;28;1886;-78
2021/04/08 01:00:30;;;;;;;;;;;;;;;21.47;26.75;97676.06;5093160;28;539;-77
2021/04/08 01:02:56;;;;;;;;;;;;;;;22.01;25.97;97670.22;5092883;28;610;-77
2021/04/08 01:05:21;;;;;;;;;;;;;;;22.31;25.40;97671.66;5092716;28;630;-77
2021/04/08 01:07:47;;;;;;;;;;;;;;;22.54;25.14;97683.88;5092552;28;1026;-78
2021/04/08 01:10:12;;;;;;;;;;;;;;;22.11;25.73;97682.50;5092556;28;831;-78
2021/04/08 01:12:38;;;;;;;;;;;;;;;21.82;25.86;97700.41;5092963;28;1037;-78
2021/04/08 01:15:07;;;;;;;;;;;;;;;21.59;26.41;97717.72;5092827;28;574;-78
2021/04/08 01:17:51;;;;;;;;;;;;;;;21.78;26.29;97711.06;5091841;28;1960;-79
2021/04/08 01:20:20;;;;;;;;;;;;;;;21.85;26.15;97707.97;5092875;28;558;-79
2021/04/08 01:22:45;;;;;;;;;;;;;;;21.82;26.22;97720.25;5092542;28;999;-78
2021/04/08 01:25:26;;;;;;;;;;;;;;;21.76;26.33;97709.91;5092711;28;811;-78
2021/04/08 01:27:51;;;;;;;;;;;;;;;21.09;27.06;97702.22;5092842;28;555;-78
2021/04/08 01:30:38;;;;;;;;;;;;;;;22.35;25.32;97689.34;5092922;28;567;-79
2021/04/08 01:33:04;;;;;;;;;;;;;;;22.42;25.02;97696.03;5085577;28;1198;-79
2021/04/08 01:35:30;;;;;;;;;;;;;;;22.35;25.05;97695.03;5091727;28;950;-78
2021/04/08 01:38:06;;;;;;;;;;;;;;;21.62;26.21;97699.84;5091973;28;1955;-79
2021/04/08 01:40:32;;;;;;;;;;;;;;;21.63;26.03;97701.44;5091629;28;825;-78
2021/04/08 01:42:57;;;;;;;;;;;;;;;21.65;26.27;97696.09;5091585;28;978;-79
2021/04/08 01:45:23;;;;;;;;;;;;;;;21.35;26.87;97696.63;5091974;28;804;-79
2021/04/08 01:47:49;;;;;;;;;;;;;;;21.79;25.90;97697.69;5091508;28;632;-79
2021/04/08 01:50:15;;;;;;;;;;;;;;;21.84;26.08;97695.06;5091249;28;534;-78
2021/04/08 01:52:41;;;;;;;;;;;;;;;21.25;26.86;97696.50;5090855;28;1009;-78
2021/04/08 01:55:09;;;;;;;;;;;;;;;20.65;27.74;97689.75;5090262;28;1023;-79
2021/04/08 01:57:36;;;;;;;;;;;;;;;21.77;25.77;97689.66;5092229;28;1890;-78
2021/04/08 02:00:02;;;;;;;;;;;;;;;21.69;26.17;97693.16;5091141;28;630;-78
2021/04/08 02:02:30;;;;;;;;;;;;;;;21.91;25.80;97681.91;5092415;28;661;-78
2021/04/08 02:04:55;;;;;;;;;;;;;;;21.33;26.25;97695.03;5091321;28;553;-79
2021/04/08 02:07:21;;;;;;;;;;;;;;;21.72;26.10;97690.22;5092024;28;823;-79
2021/04/08 02:09:46;;;;;;;;;;;;;;;21.55;26.10;97685.88;5090575;28;829;-79
2021/04/08 02:12:12;;;;;;;;;;;;;;;21.83;25.60;97676.50;5092238;28;984;-79
2021/04/08 02:14:38;;;;;;;;;;;;;;;21.56;26.24;97679.00;5090857;28;540;-78
2021/04/08 02:17:03;;;;;;;;;;;;;;;21.58;25.84;97693.50;5091129;28;1971;-79
2021/04/08 02:19:29;;;;;;;;;;;;;;;21.51;25.99;97705.06;5090835;28;635;-79
2021/04/08 02:21:54;;;;;;;;;;;;;;;21.62;25.81;97699.84;5091732;28;935;-79
2021/04/08 02:24:20;;;;;;;;;;;;;;;21.54;25.94;97712.63;5090397;28;919;-79
2021/04/08 02:26:46;;;;;;;;;;;;;;;21.63;25.87;97718.41;5091684;28;992;-78
2021/04/08 02:29:11;;;;;;;;;;;;;;;21.72;26.00;97715.69;5091491;28;565;-79
2021/04/08 02:31:37;;;;;;;;;;;;;;;22.23;25.10;97715.69;5090830;28;683;-79
2021/04/08 02:34:03;;;;;;;;;;;;;;;22.33;24.86;97720.22;5091024;28;814;-78
2021/04/08 02:36:28;;;;;;;;;;;;;;;22.03;25.22;97726.47;5089849;28;1945;-79
2021/04/08 02:38:53;;;;;;;;;;;;;;;21.66;25.73;97743.00;5090890;28;996;-78
2021/04/08 02:41:19;;;;;;;;;;;;;;;21.61;25.78;97743.56;5074199;28;779;-79
2021/04/08 02:43:44;;;;;;;;;;;;;;;21.64;26.26;97722.81;5090155;28;614;-79
2021/04/08 02:46:10;;;;;;;;;;;;;;;22.12;25.43;97725.78;5091654;28;559;-79
2021/04/08 02:48:35;;;;;;;;;;;;;;;22.54;24.80;97715.06;5090655;28;944;-79
2021/04/08 02:51:20;;;;;;;;;;;;;;;22.23;24.83;97697.91;5091319;28;875;-78
2021/04/08 02:53:54;;;;;;;;;;;;;;;21.76;25.42;97704.25;5089825;28;581;-78
2021/04/08 02:56:20;;;;;;;;;;;;;;;21.63;25.89;97694.97;5090408;28;1878;-78
2021/04/08 02:58:45;;;;;;;;;;;;;;;21.73;25.80;97699.50;5090765;28;559;-79
2021/04/08 03:01:11;;;;;;;;;;;;;;;21.78;25.91;97713.88;5090492;28;663;-79
2021/04/08 03:03:48;;;;;;;;;;;;;;;21.58;26.22;97730.31;5090537;28;614;-78
2021/04/08 03:06:13;;;;;;;;;;;;;;;21.59;26.00;97729.03;5090836;28;925;-78
2021/04/08 03:08:40;;;;;;;;;;;;;;;21.55;26.17;97729.19;5090078;28;875;-78
2021/04/08 03:11:06;;;;;;;;;;;;;;;21.50;26.28;97726.09;5073688;28;863;-79
2021/04/08 03:13:32;;;;;;;;;;;;;;;21.44;26.34;97728.69;5089548;28;558;-78
2021/04/08 03:15:57;;;;;;;;;;;;;;;21.58;26.28;97724.63;5090155;28;1953;-78
2021/04/08 03:18:23;;;;;;;;;;;;;;;21.39;26.23;97734.13;5089432;28;650;-78
2021/04/08 03:20:52;;;;;;;;;;;;;;;21.37;26.36;97737.41;5089677;28;932;-78
2021/04/08 03:23:18;;;;;;;;;;;;;;;21.82;26.06;97748.56;5089111;28;886;-78
2021/04/08 03:25:43;;;;;;;;;;;;;;;22.14;25.58;97746.75;5090851;28;1055;-79
2021/04/08 03:28:11;;;;;;;;;;;;;;;22.27;24.93;97743.91;5090294;28;553;-77
2021/04/08 03:30:40;;;;;;;;;;;;;;;22.15;25.23;97745.50;5072481;28;1169;-78
2021/04/08 03:33:05;;;;;;;;;;;;;;;21.77;25.55;97739.84;5089100;28;646;-78
2021/04/08 03:35:31;;;;;;;;;;;;;;;21.46;26.09;97739.56;5088949;28;1015;-78
2021/04/08 03:37:56;;;;;;;;;;;;;;;21.55;26.02;97739.69;5088990;28;1910;-78
2021/04/08 03:40:22;;;;;;;;;;;;;;;21.41;26.44;97746.59;5089299;28;804;-79
2021/04/08 03:42:49;;;;;;;;;;;;;;;21.39;26.30;97748.25;5089443;28;672;-78
2021/04/08 03:45:14;;;;;;;;;;;;;;;21.44;26.41;97739.22;5089172;28;1142;-79
2021/04/08 03:47:43;;;;;;;;;;;;;;;21.45;26.17;97743.63;5090392;28;561;-79
2021/04/08 03:50:09;;;;;;;;;;;;;;;21.47;26.23;97738.34;5089013;28;1137;-79
2021/04/08 03:52:34;;;;;;;;;;;;;;;21.81;25.68;97744.16;5089245;28;903;-79
2021/04/08 03:55:00;;;;;;;;;;;;;;;22.19;25.45;97753.91;5089076;28;991;-78
2021/04/08 03:57:25;;;;;;;;;;;;;;;22.35;24.88;97768.72;5089104;28;1961;-77
2021/04/08 03:59:54;;;;;;;;;;;;;;;22.21;25.17;97757.84;5088470;28;572;-78
2021/04/08 04:02:19;;;;;;;;;;;;;;;21.77;25.76;97749.13;5088870;28;642;-77
2021/04/08 04:04:45;;;;;;;;;;;;;;;21.63;25.86;97754.44;5088193;28;985;-77
2021/04/08 04:07:10;;;;;;;;;;;;;;;21.50;26.02;97752.38;5088330;28;954;-78
2021/04/08 04:09:36;;;;;;;;;;;;;;;21.94;25.66;97775.28;5089321;28;897;-78
2021/04/08 04:12:01;;;;;;;;;;;;;;;22.21;25.13;97791.84;5089572;28;561;-77
2021/04/08 04:14:28;;;;;;;;;;;;;;;22.26;25.27;97799.78;5089264;28;792;-77
2021/04/08 04:16:54;;;;;;;;;;;;;;;22.06;25.34;97821.88;5090804;28;1898;-78
2021/04/08 04:19:20;;;;;;;;;;;;;;;21.81;25.68;97829.13;5092974;28;867;-73
2021/04/08 04:21:46;;;;;;;;;;;;;;;21.77;26.04;97831.25;5092659;28;869;-75
2021/04/08 04:24:11;;;;;;;;;;;;;;;21.98;25.58;97840.34;5093450;28;1053;-77
2021/04/08 04:26:36;;;;;;;;;;;;;;;21.77;26.01;97848.25;5093750;28;656;-78
2021/04/08 04:29:02;;;;;;;;;;;;;;;21.54;26.39;97843.63;5093308;28;639;-78
2021/04/08 04:31:28;;;;;;;;;;;;;;;21.65;26.42;97851.81;5092831;28;1180;-77
2021/04/08 04:33:53;;;;;;;;;;;;;;;21.66;26.16;97847.78;5093280;28;635;-77
2021/04/08 04:36:19;;;;;;;;;;;;;;;21.62;26.37;97858.41;5093016;28;1898;-77
2021/04/08 04:38:45;;;;;;;;;;;;;;;21.75;26.09;97855.59;5092672;28;826;-77
2021/04/08 04:41:11;;;;;;;;;;;;;;;21.66;26.39;97859.09;5093391;28;840;-77
2021/04/08 04:43:36;;;;;;;;;;;;;;;21.54;26.50;97868.31;5092802;28;626;-77
2021/04/08 04:46:02;;;;;;;;;;;;;;;21.51;26.54;97869.25;5093481;28;540;-78
2021/04/08 04:48:27;;;;;;;;;;;;;;;21.64;26.16;97872.09;5091700;28;1287;-77
2021/04/08 04:50:53;;;;;;;;;;;;;;;21.56;26.29;97865.88;5092910;28;997;-76
2021/04/08 04:53:19;;;;;;;;;;;;;;;21.49;26.67;97872.50;5091558;28;907;-77
2021/04/08 04:55:44;;;;;;;;;;;;;;;21.58;26.62;97880.34;5092516;28;855;-77
2021/04/08 04:58:10;;;;;;;;;;;;;;;21.35;26.91;97880.59;5092543;28;1948;-78
2021/04/08 05:00:35;;;;;;;;;;;;;;;21.46;26.52;97883.94;5093059;28;573;-78
2021/04/08 05:03:00;;;;;;;;;;;;;;;21.50;26.64;97893.09;5092372;28;848;-78
2021/04/08 05:05:26;;;;;;;;;;;;;;;21.55;26.58;97899.03;5092729;28;937;-78
2021/04/08 05:07:51;;;;;;;;;;;;;;;21.45;26.62;97896.47;5092627;28;787;-77
2021/04/08 05:10:17;;;;;;;;;;;;;;;21.53;26.52;97906.38;5092578;28;639;-77
2021/04/08 05:12:42;;;;;;;;;;;;;;;21.80;25.94;97915.31;5092592;28;564;-78
2021/04/08 05:15:08;;;;;;;;;;;;;;;21.57;26.18;97919.19;5092442;28;565;-79
2021/04/08 05:17:33;;;;;;;;;;;;;;;21.52;26.58;97910.47;5092640;28;1883;-80
2021/04/08 05:19:59;;;;;;;;;;;;;;;21.52;26.44;97910.47;5091386;28;870;-80
2021/04/08 05:22:25;;;;;;;;;;;;;;;21.46;26.60;97900.94;5092248;28;947;-79
2021/04/08 05:24:51;;;;;;;;;;;;;;;21.16;26.93;97905.72;5074463;28;862;-76
2021/04/08 05:27:17;;;;;;;;;;;;;;;21.77;26.48;97910.56;5092107;28;543;-79
2021/04/08 05:29:42;;;;;;;;;;;;;;;22.24;25.60;97914.88;5091577;28;776;-78
2021/04/08 05:32:08;;;;;;;;;;;;;;;22.48;25.20;97921.00;5092106;28;827;-76
2021/04/08 05:34:33;;;;;;;;;;;;;;;22.29;25.08;97912.28;5091808;28;976;-78
2021/04/08 05:36:59;;;;;;;;;;;;;;;21.96;25.72;97916.47;5092126;28;1894;-78
2021/04/08 05:39:24;;;;;;;;;;;;;;;21.69;25.91;97914.81;5092051;28;606;-78
2021/04/08 05:41:50;;;;;;;;;;;;;;;21.51;26.42;97921.00;5091720;28;641;-78
2021/04/08 05:44:15;;;;;;;;;;;;;;;21.66;26.25;97923.41;5090558;28;961;-78
2021/04/08 05:46:41;;;;;;;;;;;;;;;21.60;26.25;97923.16;5091894;28;822;-77
2021/04/08 05:49:06;;;;;;;;;;;;;;;21.53;26.59;97923.38;5168808;22;3457;-72
2021/04/08 05:51:32;;;;;;;;;;;;;;;21.47;26.53;97913.84;5060847;28;848;-73
2021/04/08 05:54:00;;;;;;;;;;;;;;;21.63;26.17;97924.31;5060803;28;836;-73
2021/04/08 05:56:25;;;;;;;;;;;;;;;21.65;26.26;97924.66;5061717;28;1961;-74
2021/04/08 05:58:51;;;;;;;;;;;;;;;21.63;26.41;97927.94;5061809;28;872;-75
2021/04/08 06:01:17;;;;;;;;;;;;;;;21.51;26.59;97931.53;5062004;28;673;-76
2021/04/08 06:03:48;;;;;;;;;;;;;;;21.49;26.34;97946.09;5062208;28;594;-77
2021/04/08 06:06:13;;;;;;;;;;;;;;;21.62;26.16;97949.00;5061898;28;848;-76
2021/04/08 06:08:39;;;;;;;;;;;;;;;21.56;26.40;97950.78;5061795;28;805;-76
2021/04/08 06:11:04;;;;;;;;;;;;;;;21.55;26.24;97955.66;5061877;28;706;-76
2021/04/08 06:13:30;;;;;;;;;;;;;;;21.57;26.30;97966.53;5062092;28;648;-75
2021/04/08 06:15:55;;;;;;;;;;;;;;;21.64;26.25;97969.16;5062514;28;625;-74
2021/04/08 06:18:21;;;;;;;;;;;;;;;21.65;26.34;97987.75;5061412;28;1975;-74
2021/04/08 06:20:46;;;;;;;;;;;;;;;21.52;26.63;97982.03;5061347;28;942;-76
2021/04/08 06:23:12;;;;;;;;;;;;;;;21.46;26.56;97992.31;5061675;28;1003;-77
2021/04/08 06:25:38;;;;;;;;;;;;;;;21.35;26.46;97997.44;5061709;28;653;-75
2021/04/08 06:28:03;;;;;;;;;;;;;;;21.37;26.65;97994.97;5061366;28;652;-75
2021/04/08 06:30:29;;;;;;;;;;;;;;;21.25;26.57;97993.63;5061116;28;923;-76
2021/04/08 06:32:55;;;;;;;;;;;;;;;21.26;26.74;98006.53;5061183;28;867;-75
2021/04/08 06:35:21;;;;;;;;;;;;;;;21.40;26.55;98004.59;5061666;28;996;-74
2021/04/08 06:37:46;;;;;;;;;;;;;;;21.33;26.67;98000.69;5061342;28;1902;-74
2021/04/08 06:40:12;;;;;;;;;;;;;;;21.36;26.47;98003.91;5060559;28;646;-74
2021/04/08 06:42:38;;;;;;;;;;;;;;;21.41;26.51;98006.19;5061568;28;598;-74
2021/04/08 06:45:05;;;;;;;;;;;;;;;21.85;25.92;98008.22;5043658;28;960;-74
2021/04/08 06:47:35;;;;;;;;;;;;;;;22.18;25.48;98007.38;5061150;28;818;-73
2021/04/08 06:50:04;;;;;;;;;;;;;;;22.34;24.87;98016.59;5052807;28;1554;-74
2021/04/08 06:52:30;;;;;;;;;;;;;;;21.69;25.81;98016.75;5060838;28;674;-74
2021/04/08 06:54:55;;;;;;;;;;;;;;;21.43;26.27;98015.03;5061020;28;697;-74
2021/04/08 06:57:21;;;;;;;;;;;;;;;21.43;26.29;98010.16;5061074;28;1969;-74
2021/04/08 06:59:46;;;;;;;;;;;;;;;21.68;26.20;98014.38;5060513;28;904;-73
2021/04/08 07:02:16;;;;;;;;;;;;;;;21.64;25.97;98017.31;5060873;28;931;-73
2021/04/08 07:04:41;;;;;;;;;;;;;;;21.57;26.02;98021.13;5060743;28;1080;-73
2021/04/08 07:07:07;;;;;;;;;;;;;;;21.68;26.06;98032.16;5060722;28;720;-75
2021/04/08 07:09:32;;;;;;;;;;;;;;;21.64;26.02;98025.78;5060615;28;661;-73
2021/04/08 07:12:01;;;;;;;;;;;;;;;21.62;26.36;98033.94;5061059;28;626;-72
2021/04/08 07:14:27;;;;;;;;;;;;;;;21.53;26.45;98031.75;5060825;28;892;-74
2021/04/08 07:16:52;;;;;;;;;;;;;;;21.49;26.49;98041.56;5060135;28;1989;-73
2021/04/08 07:19:18;;;;;;;;;;;;;;;21.31;26.64;98045.66;5060540;28;917;-73
2021/04/08 07:21:43;;;;;;;;;;;;;;;21.36;26.66;98054.84;5060800;28;709;-74
2021/04/08 07:24:09;;;;;;;;;;;;;;;21.40;26.56;98049.88;5060905;28;641;-73
2021/04/08 07:26:53;;;;;;;;;;;;;;;21.40;26.54;98049.88;5060457;28;639;-73
2021/04/08 07:29:19;;;;;;;;;;;;;;;21.28;26.71;98054.97;5060084;28;958;-75
2021/04/08 07:31:44;;;;;;;;;;;;;;;21.46;26.59;98054.59;5060167;28;967;-74
2021/04/08 07:34:11;;;;;;;;;;;;;;;21.43;26.61;98063.16;5060751;28;625;-75
2021/04/08 07:36:37;;;;;;;;;;;;;;;21.40;26.42;98061.19;5059918;28;1971;-74
2021/04/08 07:39:06;;;;;;;;;;;;;;;21.44;26.35;98067.56;5060765;28;630;-74
2021/04/08 07:41:32;;;;;;;;;;;;;;;21.53;26.36;98053.59;5060660;28;669;-74
2021/04/08 07:44:02;;;;;;;;;;;;;;;21.47;26.30;98061.03;5060352;28;604;-73
2021/04/08 07:46:30;;;;;;;;;;;;;;;21.67;26.13;98058.91;5060504;28;705;-73
2021/04/08 07:48:56;;;;;;;;;;;;;;;22.15;25.51;98056.44;5059587;28;1096;-73
2021/04/08 07:51:31;;;;;;;;;;;;;;;22.43;24.96;98058.44;5059227;28;902;-74
2021/04/08 07:54:09;;;;;;;;;;;;;;;22.06;25.33;98069.16;5060116;28;851;-74
2021/04/08 07:56:35;;;;;;;;;;;;;;;21.69;25.81;98069.78;5060058;28;1911;-74
2021/04/08 07:59:19;;;;;;;;;;;;;;;21.45;26.40;98081.31;5059781;28;666;-74
2021/04/08 08:01:45;;;;;;;;;;;;;;;21.43;26.38;98077.31;5059980;28;617;-73
2021/04/08 08:04:20;;;;;;;;;;;;;;;21.40;26.46;98078.19;5059681;28;848;-74
2021/04/08 08:06:46;;;;;;;;;;;;;;;21.43;26.55;98071.66;5059994;28;890;-73
2021/04/08 08:09:11;;;;;;;;;;;;;;;21.57;26.30;98077.75;5026289;28;1117;-73
2021/04/08 08:11:40;;;;;;;;;;;;;;;21.36;26.52;98085.97;5059906;28;602;-74
2021/04/08 08:14:05;;;;;;;;;;;;;;;21.47;26.53;98092.19;5059968;28;665;-74
2021/04/08 08:16:31;;;;;;;;;;;;;;;21.47;26.49;98090.13;5059746;28;1910;-74
2021/04/08 08:18:57;;;;;;;;;;;;;;;21.45;26.30;98088.97;5059638;28;702;-74
2021/04/08 08:21:35;;;;;;;;;;;;;;;21.32;26.58;98095.34;5059742;28;849;-74
2021/04/08 08:24:04;;;;;;;;;;;;;;;21.39;26.31;98099.25;5042124;28;1107;-74
2021/04/08 08:26:29;;;;;;;;;;;;;;;21.36;26.47;98112.25;5059830;28;962;-74
2021/04/08 08:28:56;;;;;;;;;;;;;;;21.52;26.23;98109.44;5059603;28;717;-77
2021/04/08 08:31:38;;;;;;;;;;;;;;;21.43;26.54;98105.63;5060011;28;637;-75
2021/04/08 08:34:07;;;;;;;;;;;;;;;21.33;26.59;98119.56;5059755;28;728;-74
2021/04/08 08:36:33;;;;;;;;;;;;;;;21.91;25.40;98123.81;5059497;28;1905;-74
2021/04/08 08:38:58;;;;;;;;;;;;;;;21.92;25.01;98046.91;5042064;28;1142;-74
2021/04/08 08:41:24;;;;;;;;;;;;;;;22.43;24.77;98125.69;5042956;28;1015;-73
2021/04/08 08:43:49;;;;;;;;;;;;;;;21.98;25.17;98118.00;5057912;28;840;-75
2021/04/08 08:46:16;;;;;;;;;;;;;;;21.70;25.68;98123.13;5058966;28;867;-74
2021/04/08 08:48:41;;;;;;;;;;;;;;;21.62;26.04;98123.78;5059671;28;918;-72
2021/04/08 08:51:07;;;;;;;;;;;;;;;21.43;26.35;98122.59;5042242;28;749;-72
2021/04/08 08:53:32;;;;;;;;;;;;;;;21.63;25.99;98109.16;5059073;28;837;-72
2021/04/08 08:55:58;;;;;;;;;;;;;;;21.33;26.63;98113.91;5059369;28;821;-72
2021/04/08 08:58:23;;;;;;;;;;;;;;;21.42;26.30;98109.69;5044801;28;2035;-73
2021/04/08 09:00:48;;;;;;;;;;;;;;;21.49;26.18;98103.84;5039372;28;900;-73
2021/04/08 09:03:14;;;;;;;;;;;;;;;21.42;26.24;98104.81;5023841;28;900;-72
2021/04/08 09:05:39;;;;;;;;;;;;;;;21.31;26.37;98107.91;5025959;28;888;-72
2021/04/08 09:08:14;;;;;;;;;;;;;;;21.42;26.25;98110.47;5025553;28;940;-74
2021/04/08 09:10:41;;;;;;;;;;;;;;;21.39;26.22;98116.22;5025943;28;847;-73
2021/04/08 09:13:06;;;;;;;;;;;;;;;21.56;26.20;98109.34;5042928;28;805;-73
2021/04/08 09:15:32;;;;;;;;;;;;;;;21.33;26.52;98108.25;5043116;28;849;-72
2021/04/08 09:17:58;;;;;;;;;;;;;;;21.36;26.47;98102.97;5042893;28;1976;-70
2021/04/08 09:20:24;;;;;;;;;;;;;;;21.38;26.22;98106.13;5042833;28;694;-73
2021/04/08 09:22:52;;;;;;;;;;;;;;;21.47;26.34;98106.34;5042553;28;976;-72
2021/04/08 09:25:18;;;;;;;;;;;;;;;21.54;26.06;98106.94;5042486;28;946;-74
2021/04/08 09:27:50;;;;;;;;;;;;;;;21.47;26.22;98106.34;5042611;28;1001;-72
2021/04/08 09:33:42;;;;;;;;;;;;;;;21.26;26.54;98108.41;4963090;29;1094;-77
2021/04/08 09:36:23;;;;;;;;;;;;;;;21.42;26.36;98113.31;5029689;28;863;-74
2021/04/08 09:38:49;;;;;;;;;;;;;;;21.41;26.44;98119.41;5042025;28;992;-73
2021/04/08 09:41:14;;;;;;;;;;;;;;;21.43;26.15;98116.94;5042362;28;893;-74
2021/04/08 09:43:39;;;;;;;;;;;;;;;21.37;26.40;98127.19;5042361;28;618;-75
2021/04/08 09:46:06;;;;;;;;;;;;;;;21.32;26.54;98129.31;5042425;28;678;-74
2021/04/08 09:48:41;;;;;;;;;;;;;;;21.55;26.08;98124.72;5042312;28;1048;-74
2021/04/08 09:51:07;;;;;;;;;;;;;;;21.89;25.73;98115.00;5042296;28;677;-74
2021/04/08 09:53:39;;;;;;;;;;;;;;;22.33;24.91;98122.72;5041915;28;1067;-74
2021/04/08 09:56:06;;;;;;;;;;;;;;;22.25;24.86;98127.00;5041792;28;841;-75
2021/04/08 09:58:32;;;;;;;;;;;;;;;21.92;25.74;98131.09;5042269;28;1965;-74
2021/04/08 10:00:58;;;;;;;;;;;;;;;21.81;25.60;98132.19;5042132;28;637;-74
2021/04/08 10:03:34;;;;;;;;;;;;;;;21.58;25.91;98123.84;5042358;28;630;-74
2021/04/08 10:06:00;;;;;;;;;;;;;;;21.49;26.29;98126.50;5042394;28;630;-74
2021/04/08 10:08:26;;;;;;;;;;;;;;;21.67;25.79;98143.84;5041531;28;876;-75
2021/04/08 10:10:52;;;;;;;;;;;;;;;21.55;25.97;98142.53;5041652;28;850;-74
2021/04/08 10:13:31;;;;;;;;;;;;;;;21.56;26.03;98137.66;5041925;28;1130;-74
2021/04/08 10:15:57;;;;;;;;;;;;;;;21.60;25.93;98135.50;5041082;28;634;-75
2021/04/08 10:18:27;;;;;;;;;;;;;;;21.55;26.06;98139.69;5041716;28;1887;-74
2021/04/08 10:20:53;;;;;;;;;;;;;;;21.46;26.32;98138.72;5041666;28;634;-74
2021/04/08 10:23:37;;;;;;;;;;;;;;;21.45;26.32;98137.09;5041368;28;896;-74
2021/04/08 10:26:13;;;;;;;;;;;;;;;21.33;26.40;98142.22;5041392;28;820;-74
2021/04/08 10:28:45;;;;;;;;;;;;;;;22.01;25.35;98134.09;5024390;28;657;-74
2021/04/08 10:31:18;;;;;;;;;;;;;;;22.52;24.57;98145.69;5041641;28;662;-74
2021/04/08 10:33:45;;;;;;;;;;;;;;;22.23;25.03;98155.00;5041611;28;653;-74
2021/04/08 10:36:10;;;;;;;;;;;;;;;21.88;25.53;98153.06;5041553;28;685;-73
2021/04/08 10:38:36;;;;;;;;;;;;;;;21.70;25.65;98153.50;5023947;28;1905;-75
2021/04/08 10:41:02;;;;;;;;;;;;;;;21.51;26.04;98150.31;5041018;28;882;-76
2021/04/08 10:43:28;;;;;;;;;;;;;;;21.65;25.88;98148.34;5024333;28;1005;-76
2021/04/08 10:45:57;;;;;;;;;;;;;;;21.75;25.49;98145.25;5041642;28;626;-74
2021/04/08 10:48:23;;;;;;;;;;;;;;;21.57;25.77;98144.91;5041124;28;747;-74
2021/04/08 10:50:49;;;;;;;;;;;;;;;21.58;26.01;98146.50;5041042;28;1196;-75
2021/04/08 10:53:21;;;;;;;;;;;;;;;21.61;25.76;98145.63;5041093;28;955;-75
2021/04/08 10:55:47;;;;;;;;;;;;;;;21.53;25.83;98147.03;5040839;28;805;-74
2021/04/08 10:58:22;;;;;;;;;;;;;;;21.53;26.12;98135.69;5041150;28;1987;-74
2021/04/08 11:00:47;;;;;;;;;;;;;;;21.53;26.08;98138.53;5041061;28;695;-76
2021/04/08 11:03:14;;;;;;;;;;;;;;;21.46;25.91;98133.06;5041405;28;730;-74
2021/04/08 11:05:39;;;;;;;;;;;;;;;21.61;25.60;98134.31;5040951;28;807;-74
2021/04/08 11:08:05;;;;;;;;;;;;;;;22.24;24.92;98133.91;5040614;28;805;-74
2021/04/08 11:10:31;;;;;;;;;;;;;;;22.57;24.30;98136.63;5023712;28;1399;-74
2021/04/08 11:12:56;;;;;;;;;;;;;;;22.33;24.53;98138.94;5041241;28;634;-74
2021/04/08 11:15:23;;;;;;;;;;;;;;;21.88;25.40;98142.53;5040794;28;690;-74
2021/04/08 11:17:49;;;;;;;;;;;;;;;21.68;25.51;98142.59;5041009;28;1981;-74
2021/04/08 11:20:15;;;;;;;;;;;;;;;21.69;25.37;98137.75;5023084;28;990;-74
2021/04/08 11:22:43;;;;;;;;;;;;;;;21.70;25.55;98151.44;5023457;28;828;-75
2021/04/08 11:25:08;;;;;;;;;;;;;;;21.85;25.33;98143.41;5023549;28;976;-76
2021/04/08 11:27:37;;;;;;;;;;;;;;;21.61;25.46;98139.97;5023538;28;550;-74
2021/04/08 11:30:04;;;;;;;;;;;;;;;21.76;25.03;98141.22;5040426;28;721;-76
2021/04/08 11:32:29;;;;;;;;;;;;;;;21.61;25.49;98148.47;5040531;28;622;-75
2021/04/08 11:34:57;;;;;;;;;;;;;;;21.57;25.30;98145.72;5023122;28;892;-74
2021/04/08 11:37:36;;;;;;;;;;;;;;;21.62;25.57;98154.91;5040147;28;1906;-74
2021/04/08 11:40:03;;;;;;;;;;;;;;;21.70;25.26;98142.94;5040170;28;729;-75
2021/04/08 11:42:32;;;;;;;;;;;;;;;22.27;24.52;98141.50;5040472;28;638;-75
2021/04/08 11:44:57;;;;;;;;;;;;;;;22.53;24.28;98147.28;5040379;28;649;-74
2021/04/08 11:47:23;;;;;;;;;;;;;;;22.07;24.62;98149.31;5023155;28;614;-74
2021/04/08 11:49:52;;;;;;;;;;;;;;;22.02;24.82;98147.00;5039592;28;954;-74
2021/04/08 11:52:21;;;;;;;;;;;;;;;21.82;24.83;98149.97;5039832;28;901;-74
2021/04/08 11:55:00;;;;;;;;;;;;;;;21.67;25.04;98148.72;5040322;28;603;-76
2021/04/08 11:57:25;;;;;;;;;;;;;;;21.57;25.47;98151.38;5040113;28;1910;-74
2021/04/08 11:59:57;;;;;;;;;;;;;;;21.59;25.25;98148.09;5039875;28;698;-74
2021/04/08 12:02:29;;;;;;;;;;;;;;;21.47;25.27;98148.78;5040021;28;702;-75
2021/04/08 12:04:55;;;;;;;;;;;;;;;21.61;25.13;98151.28;5022739;28;1035;-75
2021/04/08 12:07:20;;;;;;;;;;;;;;;21.67;25.33;98131.72;5040099;28;846;-75
2021/04/08 12:09:48;;;;;;;;;;;;;;;21.69;25.11;98146.22;5040103;28;838;-74
2021/04/08 12:12:13;;;;;;;;;;;;;;;21.48;25.32;98148.34;5039989;28;647;-74
2021/04/08 12:14:58;;;;;;;;;;;;;;;21.46;25.35;98150.03;5040180;28;626;-74
2021/04/08 12:17:23;;;;;;;;;;;;;;;21.56;25.15;98143.31;5039835;28;1967;-74
2021/04/08 12:19:49;;;;;;;;;;;;;;;22.12;24.64;98140.28;5039437;28;1071;-74
2021/04/08 12:22:14;;;;;;;;;;;;;;;22.44;23.94;98138.66;5039515;28;914;-75
2021/04/08 12:24:41;;;;;;;;;;;;;;;22.43;23.98;98143.50;5039886;28;877;-74
2021/04/08 12:27:18;;;;;;;;;;;;;;;22.00;24.42;98144.63;5039777;28;664;-74
2021/04/08 12:29:44;;;;;;;;;;;;;;;21.79;24.70;98142.34;5022631;28;626;-73
2021/04/08 12:32:09;;;;;;;;;;;;;;;21.77;24.85;98142.00;5039701;28;674;-73
2021/04/08 12:34:35;;;;;;;;;;;;;;;21.61;25.20;98142.00;5039668;28;1030;-75
2021/04/08 12:37:00;;;;;;;;;;;;;;;21.67;25.14;98134.56;5039325;28;1902;-73
2021/04/08 12:39:27;;;;;;;;;;;;;;;21.46;25.31;98133.06;5043355;28;845;-73
2021/04/08 12:41:53;;;;;;;;;;;;;;;21.63;25.21;98131.81;5056170;28;876;-73
2021/04/08 12:44:18;;;;;;;;;;;;;;;21.61;24.88;98148.47;5063642;28;698;-73
2021/04/08 12:46:44;;;;;;;;;;;;;;;21.69;25.04;98135.69;5063066;28;836;-71
2021/04/08 12:49:09;;;;;;;;;;;;;;;21.77;25.03;98147.66;5062503;28;1037;-73
2021/04/08 12:51:35;;;;;;;;;;;;;;;21.74;25.11;98145.72;5029405;28;1148;-73
2021/04/08 12:54:00;;;;;;;;;;;;;;;21.96;24.70;98157.28;5063345;28;1040;-73
2021/04/08 12:56:26;;;;;;;;;;;;;;;21.94;24.66;98159.78;5063539;28;1968;-74
2021/04/08 12:58:52;;;;;;;;;;;;;;;21.84;24.98;98153.94;5063559;28;602;-73
2021/04/08 13:01:18;;;;;;;;;;;;;;;21.96;24.76;98165.78;5062730;28;860;-73
2021/04/08 13:03:43;;;;;;;;;;;;;;;21.83;25.05;98163.69;5062894;28;824;-73
2021/04/08 13:06:09;;;;;;;;;;;;;;;21.74;25.09;98149.31;5063283;28;809;-76
2021/04/08 13:08:34;;;;;;;;;;;;;;;21.76;25.03;98157.38;5062865;28;704;-76